Terminal Aerodrome Forecast
Issued by NWS

Home | Current Version | Previous Version | Text Only | Print | Product List | Glossary On
Versions: 1 2 3 4 5 6 7 8 9 10 11 12 13 14 15 16 17 18 19 20
000
FTUS46 KSGX 270520
TAFCRQ
TAF
KCRQ 270520Z 2706/2806 VRB04KT P6SM OVC013
     FM271800 25007KT P6SM BKN015
     FM272100 24009KT P6SM SCT017 SCT200
     FM280200 VRB04KT P6SM BKN011=

USA.gov is the U.S. government's official web portal to all federal, state and local government web resources and services.